Time;durP1;ratioP1;P1;durP2;ratioP2;P2;SDS_P1;SDS_P2;PMS_P1;PMS_P2;Temp;Humidity;BMP_temperature;BMP_pressure;BME280_temperature;BME280_humidity;BME280_pressure;Samples;Min_cycle;Max_cycle;Signal;HPM_P1;HPM_P2
2022/11/04 00:02:02;;;;;;;;;;;11.00;99.90;;;;;;5014726;28;20016;-82
2022/11/04 00:04:28;;;;;;;;;;;11.00;99.90;;;;;;5012895;28;20052;-84
2022/11/04 00:06:54;;;;;;;;;;;10.90;99.90;;;;;;5017567;28;20010;-83
2022/11/04 00:09:21;;;;;;;;;;;10.90;99.90;;;;;;5034308;28;20316;-84
2022/11/04 00:14:32;;;;;;;;;;;10.80;99.90;;;;;;5034963;28;19921;-85
2022/11/04 00:30:46;;;;;;;;;;;10.90;99.90;;;;;;5014830;28;19926;-85
2022/11/04 00:33:24;;;;;;;;;;;10.90;99.90;;;;;;5005474;28;19940;-84
2022/11/04 00:35:51;;;;;;;;;;;10.80;99.90;;;;;;5030058;28;20379;-86
2022/11/04 00:38:17;;;;;;;;;;;10.80;99.90;;;;;;5024616;28;19928;-86
2022/11/04 00:40:42;;;;;;;;;;;10.70;99.90;;;;;;5034226;28;19921;-86
2022/11/04 00:43:08;;;;;;;;;;;10.80;99.90;;;;;;5012464;28;20308;-85
2022/11/04 00:45:33;;;;;;;;;;;10.80;99.90;;;;;;5011559;28;19932;-85
2022/11/04 00:47:59;;;;;;;;;;;10.80;99.90;;;;;;5000550;28;19921;-85
2022/11/04 00:50:25;;;;;;;;;;;10.80;99.90;;;;;;5034647;28;19928;-90
2022/11/04 00:52:50;;;;;;;;;;;10.80;99.90;;;;;;5014216;28;19921;-88
2022/11/04 00:55:16;;;;;;;;;;;10.80;99.90;;;;;;5009666;28;19928;-88
2022/11/04 00:57:41;;;;;;;;;;;10.80;99.90;;;;;;5017065;28;19928;-86
2022/11/04 01:00:07;;;;;;;;;;;10.80;99.90;;;;;;5033849;28;19943;-87
2022/11/04 01:02:33;;;;;;;;;;;10.80;99.90;;;;;;5000338;28;20305;-86
2022/11/04 01:04:59;;;;;;;;;;;10.70;99.90;;;;;;5013362;28;19937;-85
2022/11/04 01:07:24;;;;;;;;;;;10.70;99.90;;;;;;5013953;28;19933;-85
2022/11/04 01:09:50;;;;;;;;;;;10.70;99.90;;;;;;5030789;28;20051;-86
2022/11/04 01:12:15;;;;;;;;;;;10.70;99.90;;;;;;5000517;28;20273;-86
2022/11/04 01:14:41;;;;;;;;;;;10.80;99.90;;;;;;5017258;28;19921;-85
2022/11/04 01:17:07;;;;;;;;;;;10.80;99.90;;;;;;5017061;28;19921;-86
2022/11/04 01:19:33;;;;;;;;;;;10.80;99.90;;;;;;5033142;28;19929;-86
2022/11/04 01:21:58;;;;;;;;;;;10.80;99.90;;;;;;4993879;28;19925;-83
2022/11/04 01:24:24;;;;;;;;;;;10.80;99.90;;;;;;5013410;28;19929;-86
2022/11/04 01:26:50;;;;;;;;;;;10.80;99.90;;;;;;5013329;28;19972;-84
2022/11/04 01:29:15;;;;;;;;;;;10.80;99.90;;;;;;4997945;28;19921;-85
2022/11/04 01:31:41;;;;;;;;;;;10.80;99.90;;;;;;4997424;28;20369;-84
2022/11/04 01:34:07;;;;;;;;;;;10.80;99.90;;;;;;4980563;28;19921;-87
2022/11/04 01:36:33;;;;;;;;;;;10.80;99.90;;;;;;5027515;28;19971;-87
2022/11/04 01:38:58;;;;;;;;;;;10.80;99.90;;;;;;4994540;28;19960;-86
2022/11/04 01:41:25;;;;;;;;;;;10.80;99.90;;;;;;4991542;28;19925;-86
2022/11/04 01:43:54;;;;;;;;;;;10.80;99.90;;;;;;5030669;28;19921;-86
2022/11/04 01:46:29;;;;;;;;;;;10.90;99.90;;;;;;5014269;28;20253;-87
2022/11/04 01:48:56;;;;;;;;;;;10.80;99.90;;;;;;4997299;28;20362;-87
2022/11/04 01:51:22;;;;;;;;;;;10.90;99.90;;;;;;5029978;28;20284;-87
2022/11/04 01:53:50;;;;;;;;;;;10.80;99.90;;;;;;5013490;28;19921;-87
2022/11/04 01:56:16;;;;;;;;;;;10.90;99.90;;;;;;4997938;28;19921;-85
2022/11/04 01:58:46;;;;;;;;;;;10.80;99.90;;;;;;5015640;28;19992;-85
2022/11/04 02:01:12;;;;;;;;;;;10.90;99.90;;;;;;5032899;28;19925;-86
2022/11/04 02:03:52;;;;;;;;;;;10.90;99.90;;;;;;5016452;28;20440;-86
2022/11/04 02:06:18;;;;;;;;;;;10.80;99.90;;;;;;5010077;28;19921;-86
2022/11/04 02:08:44;;;;;;;;;;;10.90;99.90;;;;;;4997007;28;19925;-87
2022/11/04 02:12:48;;;;;;;;;;;10.90;99.90;;;;;;4996511;28;19921;-87
2022/11/04 02:13:55;;;;;;;;;;;10.90;99.90;;;;;;5004984;28;19925;-86
2022/11/04 02:16:27;;;;;;;;;;;10.90;99.90;;;;;;4998290;28;19973;-87
2022/11/04 02:19:25;;;;;;;;;;;10.90;99.90;;;;;;5033264;28;19971;-87
2022/11/04 02:22:09;;;;;;;;;;;10.90;99.90;;;;;;4980568;28;19979;-87
2022/11/04 02:24:41;;;;;;;;;;;10.90;99.90;;;;;;5016292;28;19921;-87
2022/11/04 02:27:07;;;;;;;;;;;10.80;99.90;;;;;;5027356;28;19922;-87
2022/11/04 02:29:51;;;;;;;;;;;10.80;99.90;;;;;;5013647;28;19921;-87
2022/11/04 02:32:22;;;;;;;;;;;10.80;99.90;;;;;;4996729;28;19922;-88
2022/11/04 02:34:48;;;;;;;;;;;10.80;99.90;;;;;;4997211;28;19926;-88
2022/11/04 02:37:18;;;;;;;;;;;10.80;99.90;;;;;;4998360;28;20092;-87
2022/11/04 02:39:46;;;;;;;;;;;10.90;99.90;;;;;;4997278;28;19921;-88
2022/11/04 02:42:24;;;;;;;;;;;10.80;99.90;;;;;;4996552;28;19925;-87
2022/11/04 02:45:08;;;;;;;;;;;10.90;99.90;;;;;;5013502;28;19961;-87
2022/11/04 02:47:35;;;;;;;;;;;10.90;99.90;;;;;;4997085;28;19965;-86
2022/11/04 02:50:10;;;;;;;;;;;10.90;99.90;;;;;;5049460;28;19921;-87
2022/11/04 02:52:48;;;;;;;;;;;10.90;99.90;;;;;;5016639;28;19921;-87
2022/11/04 02:55:17;;;;;;;;;;;10.90;99.90;;;;;;5032480;28;20448;-87
2022/11/04 02:57:43;;;;;;;;;;;10.80;99.90;;;;;;5016440;28;19991;-87
2022/11/04 03:00:11;;;;;;;;;;;10.80;99.90;;;;;;5016606;28;19971;-87
2022/11/04 03:02:38;;;;;;;;;;;10.80;99.90;;;;;;5035859;28;19929;-87
2022/11/04 03:05:06;;;;;;;;;;;10.70;99.90;;;;;;5003129;28;19980;-88
2022/11/04 03:07:34;;;;;;;;;;;10.80;99.90;;;;;;5013688;28;19925;-88
2022/11/04 03:10:01;;;;;;;;;;;10.70;99.90;;;;;;5036378;28;19921;-88
2022/11/04 03:12:29;;;;;;;;;;;10.70;99.90;;;;;;5019927;28;19968;-89
2022/11/04 03:14:58;;;;;;;;;;;10.80;99.90;;;;;;5034634;28;19925;-89
2022/11/04 03:17:30;;;;;;;;;;;10.80;99.90;;;;;;5019809;28;19939;-88
2022/11/04 03:19:57;;;;;;;;;;;10.70;99.90;;;;;;5036346;28;19921;-87
2022/11/04 03:22:34;;;;;;;;;;;10.60;99.90;;;;;;5019469;28;20365;-89
2022/11/04 03:25:00;;;;;;;;;;;10.40;99.90;;;;;;5027728;28;19922;-90
2022/11/04 03:27:26;;;;;;;;;;;10.30;99.90;;;;;;4999452;28;19984;-90
2022/11/04 03:29:58;;;;;;;;;;;10.30;99.90;;;;;;5019232;28;19921;-90
2022/11/04 03:32:30;;;;;;;;;;;10.30;99.90;;;;;;5035978;28;19921;-90
2022/11/04 03:34:55;;;;;;;;;;;10.30;99.90;;;;;;5036159;28;19928;-89
2022/11/04 03:37:21;;;;;;;;;;;10.30;99.90;;;;;;5019240;28;19921;-90
2022/11/04 03:39:47;;;;;;;;;;;10.20;99.90;;;;;;5019342;28;19963;-90
2022/11/04 03:42:19;;;;;;;;;;;10.30;99.90;;;;;;5003477;28;19971;-90
2022/11/04 03:44:49;;;;;;;;;;;10.30;99.90;;;;;;5034679;28;19948;-90
2022/11/04 03:47:15;;;;;;;;;;;10.30;99.90;;;;;;5019478;28;20028;-89
2022/11/04 03:49:41;;;;;;;;;;;10.30;99.90;;;;;;5019581;28;19967;-89
2022/11/04 03:52:06;;;;;;;;;;;10.40;99.90;;;;;;5036113;28;19921;-89
2022/11/04 03:54:34;;;;;;;;;;;10.40;99.90;;;;;;5019249;28;20020;-90
2022/11/04 03:57:09;;;;;;;;;;;10.50;99.90;;;;;;5012314;28;19972;-89
2022/11/04 03:59:53;;;;;;;;;;;10.50;99.90;;;;;;4999523;28;19925;-89
2022/11/04 04:02:42;;;;;;;;;;;10.50;99.90;;;;;;5015544;28;19925;-89
2022/11/04 04:05:18;;;;;;;;;;;10.50;99.90;;;;;;4999675;28;19922;-89
2022/11/04 04:07:49;;;;;;;;;;;10.60;99.90;;;;;;4999992;28;19984;-89
2022/11/04 04:13:05;;;;;;;;;;;10.60;99.90;;;;;;5034489;28;19921;-89
2022/11/04 04:15:42;;;;;;;;;;;10.50;99.90;;;;;;5018987;28;20012;-89
2022/11/04 04:18:10;;;;;;;;;;;10.50;99.90;;;;;;5035732;28;19928;-89
2022/11/04 04:20:37;;;;;;;;;;;10.50;99.90;;;;;;5035678;28;19925;-90
2022/11/04 04:28:44;;;;;;;;;;;10.40;99.90;;;;;;5038374;28;19921;-88
2022/11/04 04:31:11;;;;;;;;;;;10.30;99.90;;;;;;5038524;28;19920;-90
2022/11/04 04:33:37;;;;;;;;;;;10.20;99.90;;;;;;5021737;28;19921;-90
2022/11/04 04:36:04;;;;;;;;;;;10.30;99.90;;;;;;5038216;28;19967;-90
2022/11/04 04:46:46;;;;;;;;;;;10.30;99.90;;;;;;5005422;28;19925;-90
2022/11/04 04:49:11;;;;;;;;;;;10.20;99.90;;;;;;5002443;28;20020;-90
2022/11/04 04:51:39;;;;;;;;;;;10.30;99.90;;;;;;5038299;28;19952;-89
2022/11/04 04:54:05;;;;;;;;;;;10.20;99.90;;;;;;5021804;28;19986;-90
2022/11/04 04:56:30;;;;;;;;;;;10.30;99.90;;;;;;5021616;28;19924;-90
2022/11/04 04:58:56;;;;;;;;;;;10.30;99.90;;;;;;5037426;28;19963;-91
2022/11/04 05:01:22;;;;;;;;;;;10.30;99.90;;;;;;5021854;28;19921;-90
2022/11/04 05:03:47;;;;;;;;;;;10.30;99.90;;;;;;5036893;28;19943;-90
2022/11/04 05:06:13;;;;;;;;;;;10.30;99.90;;;;;;5038174;28;19924;-89
2022/11/04 05:08:38;;;;;;;;;;;10.30;99.90;;;;;;5037938;28;19966;-90
2022/11/04 05:11:04;;;;;;;;;;;10.30;99.90;;;;;;5021246;28;19925;-90
2022/11/04 05:13:29;;;;;;;;;;;10.30;99.90;;;;;;5021035;28;19935;-90
2022/11/04 05:15:56;;;;;;;;;;;10.40;99.90;;;;;;5017219;28;20458;-90
2022/11/04 05:18:22;;;;;;;;;;;10.30;99.90;;;;;;5018056;28;20365;-90
2022/11/04 05:20:47;;;;;;;;;;;10.30;99.90;;;;;;5002458;28;19921;-90
2022/11/04 05:23:13;;;;;;;;;;;10.30;99.90;;;;;;5003255;28;19960;-90
2022/11/04 05:25:40;;;;;;;;;;;10.30;99.90;;;;;;5001532;28;19921;-90
2022/11/04 05:28:06;;;;;;;;;;;10.20;99.90;;;;;;5001285;28;20361;-90
2022/11/04 05:30:32;;;;;;;;;;;10.10;99.90;;;;;;5033815;28;19980;-89
2022/11/04 05:32:58;;;;;;;;;;;10.10;99.90;;;;;;5050904;28;19967;-89
2022/11/04 05:35:23;;;;;;;;;;;10.00;99.90;;;;;;5017359;28;19927;-90
2022/11/04 05:37:49;;;;;;;;;;;10.00;99.90;;;;;;5000954;28;19971;-90
2022/11/04 05:40:14;;;;;;;;;;;10.10;99.90;;;;;;4985166;28;19925;-90
2022/11/04 05:42:40;;;;;;;;;;;10.10;99.90;;;;;;5020035;28;19921;-90
2022/11/04 05:45:06;;;;;;;;;;;10.10;99.90;;;;;;5021081;28;19951;-90
2022/11/04 05:47:31;;;;;;;;;;;10.00;99.90;;;;;;5037230;28;19920;-89
2022/11/04 05:49:57;;;;;;;;;;;10.00;99.90;;;;;;5037442;28;19927;-90
2022/11/04 05:52:22;;;;;;;;;;;10.00;99.90;;;;;;5034340;28;19974;-90
2022/11/04 05:54:48;;;;;;;;;;;10.00;99.90;;;;;;5033639;28;19928;-90
2022/11/04 05:57:13;;;;;;;;;;;10.00;99.90;;;;;;5032940;28;20015;-90
2022/11/04 05:59:39;;;;;;;;;;;10.00;99.90;;;;;;5016830;28;19926;-90
2022/11/04 06:02:05;;;;;;;;;;;10.00;99.90;;;;;;5012346;28;20383;-90
2022/11/04 06:04:30;;;;;;;;;;;10.00;99.90;;;;;;5036797;28;19928;-91
2022/11/04 06:06:56;;;;;;;;;;;10.00;99.90;;;;;;5036364;28;19990;-90
2022/11/04 06:09:37;;;;;;;;;;;9.90;99.90;;;;;;5036851;28;19928;-91
2022/11/04 06:12:07;;;;;;;;;;;9.90;99.90;;;;;;5036505;28;19999;-90
2022/11/04 06:14:33;;;;;;;;;;;9.90;99.90;;;;;;5052689;28;19943;-88
2022/11/04 06:16:59;;;;;;;;;;;9.90;99.90;;;;;;5036350;28;19924;-90
2022/11/04 06:19:25;;;;;;;;;;;9.80;99.90;;;;;;5022002;28;19990;-90
2022/11/04 06:21:50;;;;;;;;;;;9.70;99.90;;;;;;5000731;28;19921;-91
2022/11/04 06:24:16;;;;;;;;;;;9.70;99.90;;;;;;5000625;28;19921;-90
2022/11/04 06:26:42;;;;;;;;;;;9.60;99.90;;;;;;5032156;28;20311;-90
2022/11/04 06:29:08;;;;;;;;;;;9.60;99.90;;;;;;5020311;28;19921;-90
2022/11/04 06:31:34;;;;;;;;;;;9.50;99.90;;;;;;5020046;28;19972;-90
2022/11/04 06:34:00;;;;;;;;;;;9.40;99.90;;;;;;5020322;28;19920;-90
2022/11/04 06:36:25;;;;;;;;;;;9.40;99.90;;;;;;5034399;28;19921;-90
2022/11/04 06:38:51;;;;;;;;;;;9.40;99.90;;;;;;5031803;28;20398;-90
2022/11/04 06:41:17;;;;;;;;;;;9.30;99.90;;;;;;5016442;28;19964;-90
2022/11/04 06:43:42;;;;;;;;;;;9.30;99.90;;;;;;5032120;28;19975;-91
2022/11/04 06:46:28;;;;;;;;;;;9.30;99.90;;;;;;5051363;28;19929;-90
2022/11/04 06:48:54;;;;;;;;;;;9.20;99.90;;;;;;5000056;28;20015;-90
2022/11/04 06:51:20;;;;;;;;;;;9.30;99.90;;;;;;5003391;28;19927;-90
2022/11/04 06:53:46;;;;;;;;;;;9.30;99.90;;;;;;5033782;28;19921;-89
2022/11/04 06:56:11;;;;;;;;;;;9.20;99.90;;;;;;4984424;28;19964;-90
2022/11/04 06:58:37;;;;;;;;;;;9.10;99.90;;;;;;5032172;28;20012;-89
2022/11/04 07:01:02;;;;;;;;;;;9.10;99.90;;;;;;5036360;28;19924;-90
2022/11/04 07:03:28;;;;;;;;;;;9.10;99.90;;;;;;5019681;28;19921;-89
2022/11/04 07:05:54;;;;;;;;;;;9.10;99.90;;;;;;5010360;28;19925;-90
2022/11/04 07:08:20;;;;;;;;;;;9.10;99.90;;;;;;5041361;28;19921;-88
2022/11/04 07:10:45;;;;;;;;;;;9.10;99.90;;;;;;5015912;28;19921;-90
2022/11/04 07:13:11;;;;;;;;;;;9.00;99.90;;;;;;5052622;28;19920;-90
2022/11/04 07:15:37;;;;;;;;;;;9.10;99.90;;;;;;5027244;28;19921;-87
2022/11/04 07:18:03;;;;;;;;;;;9.10;99.90;;;;;;5053956;28;20368;-87
2022/11/04 07:20:28;;;;;;;;;;;9.10;99.90;;;;;;5039252;28;19928;-87
2022/11/04 07:22:54;;;;;;;;;;;9.10;99.90;;;;;;5055108;28;20414;-88
2022/11/04 07:25:19;;;;;;;;;;;9.10;99.90;;;;;;5038338;28;19920;-87
2022/11/04 07:27:45;;;;;;;;;;;9.10;99.90;;;;;;5011104;28;20008;-90
2022/11/04 07:30:11;;;;;;;;;;;9.10;99.90;;;;;;5033804;28;19963;-89
2022/11/04 07:32:36;;;;;;;;;;;9.10;99.90;;;;;;4996817;28;19968;-88
2022/11/04 07:35:02;;;;;;;;;;;9.20;99.90;;;;;;4996268;28;19926;-90
2022/11/04 07:37:28;;;;;;;;;;;9.20;99.90;;;;;;5012664;28;19971;-90
2022/11/04 07:39:53;;;;;;;;;;;9.30;99.90;;;;;;5013295;28;19922;-89
2022/11/04 07:42:19;;;;;;;;;;;9.30;99.90;;;;;;4998334;28;20092;-89
2022/11/04 07:44:46;;;;;;;;;;;9.30;99.90;;;;;;4998151;28;19925;-86
2022/11/04 07:47:11;;;;;;;;;;;9.40;99.90;;;;;;5009425;28;19929;-90
2022/11/04 07:49:37;;;;;;;;;;;9.40;99.90;;;;;;5014433;28;19922;-90
2022/11/04 07:52:02;;;;;;;;;;;9.50;99.90;;;;;;5003258;28;20361;-90
2022/11/04 07:54:28;;;;;;;;;;;9.50;99.90;;;;;;5018964;28;19933;-90
2022/11/04 07:56:53;;;;;;;;;;;9.50;99.90;;;;;;4997028;28;19921;-90
2022/11/04 07:59:19;;;;;;;;;;;9.60;99.90;;;;;;5003460;28;20253;-90
2022/11/04 08:01:44;;;;;;;;;;;9.60;99.90;;;;;;5002728;28;19970;-90
2022/11/04 08:04:10;;;;;;;;;;;9.70;99.90;;;;;;5035053;28;19921;-90
2022/11/04 08:06:36;;;;;;;;;;;9.70;99.90;;;;;;5003188;28;20337;-90
2022/11/04 08:09:01;;;;;;;;;;;9.70;99.90;;;;;;5002002;28;19921;-90
2022/11/04 08:11:27;;;;;;;;;;;9.80;99.90;;;;;;5019718;28;19921;-90
2022/11/04 08:13:53;;;;;;;;;;;9.90;99.90;;;;;;5030818;28;20004;-90
2022/11/04 08:16:21;;;;;;;;;;;10.00;99.90;;;;;;5019148;28;19923;-90
2022/11/04 08:18:47;;;;;;;;;;;10.10;99.90;;;;;;5035517;28;20016;-90
2022/11/04 08:21:14;;;;;;;;;;;10.30;99.90;;;;;;5019220;28;19947;-90
2022/11/04 08:23:39;;;;;;;;;;;10.40;99.90;;;;;;5033590;28;20015;-90
2022/11/04 08:26:13;;;;;;;;;;;10.50;99.90;;;;;;5018867;28;19979;-87
2022/11/04 08:28:39;;;;;;;;;;;10.50;99.90;;;;;;5037565;28;19921;-88
2022/11/04 08:31:07;;;;;;;;;;;10.50;99.90;;;;;;5023318;28;19932;-85
2022/11/04 08:33:32;;;;;;;;;;;10.60;99.90;;;;;;5020416;28;19928;-88
2022/11/04 08:35:59;;;;;;;;;;;10.60;99.90;;;;;;5019011;28;19921;-86
2022/11/04 08:38:25;;;;;;;;;;;10.60;99.90;;;;;;5035031;28;20019;-89
2022/11/04 08:40:51;;;;;;;;;;;10.70;99.90;;;;;;5028885;28;19971;-88
2022/11/04 08:43:17;;;;;;;;;;;10.70;99.90;;;;;;5002017;28;19921;-89
2022/11/04 08:45:44;;;;;;;;;;;10.90;99.90;;;;;;5016972;28;19927;-89
2022/11/04 08:48:09;;;;;;;;;;;11.00;99.90;;;;;;5020699;28;19924;-88
2022/11/04 08:50:35;;;;;;;;;;;11.10;99.90;;;;;;5021359;28;19921;-89
2022/11/04 08:53:01;;;;;;;;;;;11.10;99.90;;;;;;5038919;28;19920;-89
2022/11/04 08:55:27;;;;;;;;;;;11.10;99.90;;;;;;5027194;28;19946;-87
2022/11/04 08:57:53;;;;;;;;;;;11.10;99.90;;;;;;5027930;28;19921;-87
2022/11/04 09:00:19;;;;;;;;;;;11.20;99.90;;;;;;5027503;28;19920;-89
2022/11/04 09:02:45;;;;;;;;;;;11.30;99.90;;;;;;5038087;28;20007;-89
2022/11/04 09:05:12;;;;;;;;;;;11.40;99.90;;;;;;5028361;28;19960;-90
2022/11/04 09:07:38;;;;;;;;;;;11.50;99.90;;;;;;5037975;28;19979;-90
2022/11/04 09:10:04;;;;;;;;;;;11.50;99.90;;;;;;5021615;28;20300;-89
2022/11/04 09:12:30;;;;;;;;;;;11.60;99.90;;;;;;5021223;28;19924;-89
2022/11/04 09:14:56;;;;;;;;;;;11.70;99.90;;;;;;5037620;28;20451;-89
2022/11/04 09:17:22;;;;;;;;;;;11.70;99.90;;;;;;5047739;28;19928;-88
2022/11/04 09:19:48;;;;;;;;;;;11.60;99.90;;;;;;5057931;28;19921;-90
2022/11/04 09:22:13;;;;;;;;;;;11.60;99.90;;;;;;5024593;28;19920;-90
2022/11/04 09:24:39;;;;;;;;;;;11.60;99.90;;;;;;5040698;28;19928;-90
2022/11/04 09:27:05;;;;;;;;;;;11.60;99.90;;;;;;5028328;28;19925;-90
2022/11/04 09:29:35;;;;;;;;;;;11.60;99.90;;;;;;5034614;28;19921;-90
2022/11/04 09:32:03;;;;;;;;;;;11.60;99.90;;;;;;5009940;28;19975;-89
2022/11/04 09:34:29;;;;;;;;;;;11.50;99.90;;;;;;5017253;28;20267;-88
2022/11/04 09:36:55;;;;;;;;;;;11.50;99.90;;;;;;4997419;28;19933;-87
2022/11/04 09:39:22;;;;;;;;;;;11.50;99.90;;;;;;4997284;28;19972;-88
2022/11/04 09:41:57;;;;;;;;;;;11.50;99.90;;;;;;4997627;28;19921;-88
2022/11/04 09:44:26;;;;;;;;;;;11.50;99.90;;;;;;5000676;28;20358;-87
2022/11/04 09:46:53;;;;;;;;;;;11.50;99.90;;;;;;5018802;28;19965;-87
2022/11/04 09:49:19;;;;;;;;;;;11.40;99.90;;;;;;5000205;28;19932;-87
2022/11/04 09:51:46;;;;;;;;;;;11.40;99.90;;;;;;5032976;28;19960;-87
2022/11/04 09:54:17;;;;;;;;;;;11.40;99.90;;;;;;5013334;28;19968;-87
2022/11/04 09:56:44;;;;;;;;;;;11.40;99.90;;;;;;5013198;28;19984;-87
2022/11/04 09:59:13;;;;;;;;;;;11.50;99.90;;;;;;5027026;28;20012;-87
2022/11/04 10:01:45;;;;;;;;;;;11.50;99.90;;;;;;5015060;28;19925;-87
2022/11/04 10:04:13;;;;;;;;;;;11.60;99.90;;;;;;5012784;28;19967;-87
2022/11/04 10:06:45;;;;;;;;;;;11.60;99.90;;;;;;5015419;28;20276;-88
2022/11/04 10:09:14;;;;;;;;;;;11.80;99.90;;;;;;5031158;28;19973;-87
2022/11/04 10:11:48;;;;;;;;;;;12.00;99.90;;;;;;5012802;28;19971;-86
2022/11/04 10:14:24;;;;;;;;;;;12.30;99.90;;;;;;5031954;28;19925;-85
2022/11/04 10:17:22;;;;;;;;;;;12.40;99.90;;;;;;5032305;28;20020;-85
2022/11/04 10:19:58;;;;;;;;;;;12.40;99.90;;;;;;4999796;28;20015;-91
2022/11/04 10:22:31;;;;;;;;;;;12.30;99.90;;;;;;5030386;28;19991;-84
2022/11/04 10:25:04;;;;;;;;;;;12.10;99.90;;;;;;5016151;28;19947;-91
2022/11/04 10:27:35;;;;;;;;;;;11.90;99.90;;;;;;5016514;28;19921;-89
2022/11/04 10:30:03;;;;;;;;;;;11.80;99.90;;;;;;5011926;28;19921;-90
2022/11/04 10:32:32;;;;;;;;;;;11.60;99.90;;;;;;5009591;28;20384;-87
2022/11/04 10:35:00;;;;;;;;;;;11.50;99.90;;;;;;5032638;28;19928;-87
2022/11/04 10:37:26;;;;;;;;;;;11.40;99.90;;;;;;5015631;28;19928;-88
2022/11/04 10:39:54;;;;;;;;;;;11.30;99.90;;;;;;5032044;28;20048;-87
2022/11/04 10:42:23;;;;;;;;;;;11.20;99.90;;;;;;5010973;28;20416;-89
2022/11/04 10:44:50;;;;;;;;;;;11.10;99.90;;;;;;5015686;28;19929;-88
2022/11/04 10:47:22;;;;;;;;;;;11.00;99.90;;;;;;5032505;28;19921;-88
2022/11/04 10:50:03;;;;;;;;;;;10.90;99.90;;;;;;5015756;28;20376;-87
2022/11/04 10:52:33;;;;;;;;;;;10.90;99.90;;;;;;5032138;28;19972;-87
2022/11/04 10:54:59;;;;;;;;;;;10.90;99.90;;;;;;5013710;28;19971;-87
2022/11/04 10:57:25;;;;;;;;;;;11.00;99.90;;;;;;5002505;28;19929;-88
2022/11/04 10:59:55;;;;;;;;;;;10.90;99.90;;;;;;5008047;28;19921;-88
2022/11/04 11:02:36;;;;;;;;;;;11.00;99.90;;;;;;5015277;28;19998;-88
2022/11/04 11:05:16;;;;;;;;;;;11.00;99.90;;;;;;5032849;28;20261;-89
2022/11/04 11:07:44;;;;;;;;;;;11.00;99.90;;;;;;4997104;28;19921;-89
2022/11/04 11:10:22;;;;;;;;;;;11.00;99.90;;;;;;4980194;28;19921;-90
2022/11/04 11:13:00;;;;;;;;;;;11.10;99.90;;;;;;4996820;28;19927;-89
2022/11/04 11:15:29;;;;;;;;;;;11.10;99.90;;;;;;4996555;28;20354;-86
2022/11/04 11:18:01;;;;;;;;;;;11.10;99.90;;;;;;5046008;28;19931;-89
2022/11/04 11:20:26;;;;;;;;;;;11.10;99.90;;;;;;5015328;28;19921;-90
2022/11/04 11:22:53;;;;;;;;;;;11.20;99.90;;;;;;5000607;28;19947;-89
2022/11/04 11:25:25;;;;;;;;;;;11.30;99.90;;;;;;4997435;28;19921;-90
2022/11/04 11:28:01;;;;;;;;;;;11.50;99.90;;;;;;5018823;28;19921;-90
2022/11/04 11:30:27;;;;;;;;;;;11.90;99.90;;;;;;5024250;28;19955;-91
2022/11/04 11:32:54;;;;;;;;;;;12.00;99.90;;;;;;5018579;28;19925;-90
2022/11/04 11:35:22;;;;;;;;;;;12.00;99.90;;;;;;5036310;28;20029;-90
2022/11/04 11:37:47;;;;;;;;;;;12.10;99.90;;;;;;5025165;28;19921;-89
2022/11/04 11:40:46;;;;;;;;;;;12.20;99.90;;;;;;5009123;28;19921;-89
2022/11/04 11:43:21;;;;;;;;;;;12.20;99.90;;;;;;4980366;28;19932;-86
2022/11/04 11:45:48;;;;;;;;;;;12.20;99.90;;;;;;5019074;28;19929;-89
2022/11/04 11:48:26;;;;;;;;;;;12.30;99.90;;;;;;5019422;28;19968;-88
2022/11/04 11:50:59;;;;;;;;;;;12.10;99.90;;;;;;5019617;28;19928;-89
2022/11/04 11:53:28;;;;;;;;;;;12.20;99.90;;;;;;5018864;28;20016;-89
2022/11/04 11:55:53;;;;;;;;;;;12.80;99.90;;;;;;5019356;28;20008;-88
2022/11/04 11:58:41;;;;;;;;;;;13.40;99.90;;;;;;5047042;28;19968;-88
2022/11/04 12:01:13;;;;;;;;;;;14.00;99.90;;;;;;5006892;28;19968;-89
2022/11/04 12:03:48;;;;;;;;;;;14.50;99.90;;;;;;5008319;28;19932;-89
2022/11/04 12:06:14;;;;;;;;;;;14.70;99.90;;;;;;5030442;28;19921;-85
2022/11/04 12:08:51;;;;;;;;;;;14.80;99.90;;;;;;5018936;28;19928;-89
2022/11/04 12:11:27;;;;;;;;;;;15.00;99.90;;;;;;5024467;28;19922;-88
2022/11/04 12:13:59;;;;;;;;;;;15.20;99.90;;;;;;5008418;28;19928;-88
2022/11/04 12:16:49;;;;;;;;;;;15.20;99.90;;;;;;5006174;28;20587;-87
2022/11/04 12:19:25;;;;;;;;;;;15.40;99.90;;;;;;5031684;28;19925;-87
2022/11/04 12:21:56;;;;;;;;;;;15.60;99.90;;;;;;5009200;28;19933;-88
2022/11/04 12:24:31;;;;;;;;;;;15.70;99.90;;;;;;5033631;28;19921;-86
2022/11/04 12:27:16;;;;;;;;;;;15.90;99.90;;;;;;5022340;28;20277;-87
2022/11/04 12:29:41;;;;;;;;;;;16.00;99.90;;;;;;5008931;28;20436;-87
2022/11/04 12:32:19;;;;;;;;;;;15.90;99.90;;;;;;5013177;28;20015;-87
2022/11/04 12:34:48;;;;;;;;;;;15.90;99.90;;;;;;5011999;28;19925;-84
2022/11/04 12:37:20;;;;;;;;;;;15.80;99.90;;;;;;5005570;28;19921;-82
2022/11/04 12:40:09;;;;;;;;;;;15.90;99.90;;;;;;5005026;28;19925;-85
2022/11/04 12:42:43;;;;;;;;;;;15.90;99.90;;;;;;5006198;28;19921;-84
2022/11/04 12:45:15;;;;;;;;;;;15.80;99.90;;;;;;5005127;28;19922;-94
2022/11/04 12:47:42;;;;;;;;;;;16.00;99.90;;;;;;4998522;28;19921;-87
2022/11/04 12:50:12;;;;;;;;;;;16.30;99.90;;;;;;5016796;28;20388;-86
2022/11/04 12:52:56;;;;;;;;;;;16.30;99.90;;;;;;5005072;28;20338;-83
2022/11/04 12:55:35;;;;;;;;;;;16.40;99.90;;;;;;5014554;28;19928;-80
2022/11/04 12:58:15;;;;;;;;;;;16.50;99.90;;;;;;5025409;28;20265;-83
2022/11/04 13:00:42;;;;;;;;;;;16.50;99.90;;;;;;5035741;28;19931;-82
2022/11/04 13:03:28;;;;;;;;;;;16.50;99.90;;;;;;5032887;28;19925;-81
2022/11/04 13:06:14;;;;;;;;;;;16.60;99.90;;;;;;5028444;28;19925;-82
2022/11/04 13:08:52;;;;;;;;;;;16.50;99.90;;;;;;5015813;28;20019;-83
2022/11/04 13:11:33;;;;;;;;;;;16.30;99.90;;;;;;5033721;28;19932;-81
2022/11/04 13:14:02;;;;;;;;;;;16.20;99.90;;;;;;4998721;28;19921;-82
2022/11/04 13:16:30;;;;;;;;;;;15.90;99.90;;;;;;5016375;28;19956;-81
2022/11/04 13:18:56;;;;;;;;;;;15.90;99.90;;;;;;5033274;28;19980;-81
2022/11/04 13:21:23;;;;;;;;;;;16.10;99.90;;;;;;5033208;28;19960;-82
2022/11/04 13:23:48;;;;;;;;;;;16.10;99.90;;;;;;5002915;28;20281;-88
2022/11/04 13:26:15;;;;;;;;;;;16.10;99.90;;;;;;4997665;28;19925;-81
2022/11/04 13:28:41;;;;;;;;;;;15.60;99.90;;;;;;5000831;28;19921;-88
2022/11/04 13:31:07;;;;;;;;;;;15.20;99.90;;;;;;5000759;28;19921;-85
2022/11/04 13:33:39;;;;;;;;;;;14.80;99.90;;;;;;5013988;28;19943;-82
2022/11/04 13:36:11;;;;;;;;;;;14.50;99.90;;;;;;5006132;28;20004;-85
2022/11/04 13:38:43;;;;;;;;;;;14.20;99.90;;;;;;5019859;28;19925;-81
2022/11/04 13:41:15;;;;;;;;;;;14.00;99.90;;;;;;5036763;28;19921;-83
2022/11/04 13:43:45;;;;;;;;;;;13.90;99.90;;;;;;5019732;28;20341;-83
2022/11/04 13:46:11;;;;;;;;;;;13.80;99.90;;;;;;5019254;28;19967;-83
2022/11/04 13:48:39;;;;;;;;;;;13.70;99.90;;;;;;5034245;28;20006;-87
2022/11/04 13:51:06;;;;;;;;;;;13.70;99.90;;;;;;5020136;28;19928;-84
2022/11/04 13:53:51;;;;;;;;;;;13.60;99.90;;;;;;5015805;28;20372;-84
2022/11/04 13:56:26;;;;;;;;;;;13.50;99.90;;;;;;5016513;28;20423;-85
2022/11/04 13:58:54;;;;;;;;;;;13.40;99.90;;;;;;5008161;28;20356;-85
2022/11/04 14:01:23;;;;;;;;;;;13.30;99.90;;;;;;5020036;28;20353;-82
2022/11/04 14:03:59;;;;;;;;;;;13.30;99.90;;;;;;5016776;28;19932;-87
2022/11/04 14:06:44;;;;;;;;;;;13.20;99.90;;;;;;5016811;28;19924;-82
2022/11/04 14:09:28;;;;;;;;;;;13.10;99.90;;;;;;5006285;28;19968;-87
2022/11/04 14:12:20;;;;;;;;;;;13.00;99.90;;;;;;5019664;28;19924;-81
2022/11/04 14:14:48;;;;;;;;;;;13.00;99.90;;;;;;5031857;28;19921;-83
2022/11/04 14:17:32;;;;;;;;;;;12.90;99.90;;;;;;5006847;28;19921;-82
2022/11/04 14:20:04;;;;;;;;;;;12.80;99.90;;;;;;4999450;28;19994;-82
2022/11/04 14:22:46;;;;;;;;;;;12.90;99.90;;;;;;4998342;28;19925;-85
2022/11/04 14:25:27;;;;;;;;;;;12.70;99.90;;;;;;5012277;28;19994;-84
2022/11/04 14:28:01;;;;;;;;;;;12.60;99.90;;;;;;5002134;28;19921;-87
2022/11/04 14:30:28;;;;;;;;;;;12.50;99.90;;;;;;4998482;28;19921;-84
2022/11/04 14:32:56;;;;;;;;;;;12.40;99.90;;;;;;5003516;28;20654;-84
2022/11/04 14:35:22;;;;;;;;;;;12.40;99.90;;;;;;5016925;28;19925;-85
2022/11/04 14:37:51;;;;;;;;;;;12.40;99.90;;;;;;5016928;28;20419;-82
2022/11/04 14:40:27;;;;;;;;;;;12.30;99.90;;;;;;5016104;28;19921;-82
2022/11/04 14:42:54;;;;;;;;;;;12.30;99.90;;;;;;5015040;28;20600;-83
2022/11/04 14:45:23;;;;;;;;;;;12.30;99.90;;;;;;5032956;28;19924;-83
2022/11/04 14:47:50;;;;;;;;;;;12.30;99.90;;;;;;5029246;28;19925;-84
2022/11/04 14:50:17;;;;;;;;;;;12.20;99.90;;;;;;5017168;28;19932;-84
2022/11/04 14:52:46;;;;;;;;;;;12.20;99.90;;;;;;5000657;28;19960;-84
2022/11/04 14:55:14;;;;;;;;;;;12.20;99.90;;;;;;5028263;28;20012;-82
2022/11/04 14:57:42;;;;;;;;;;;12.10;99.90;;;;;;5028926;28;19920;-79
2022/11/04 15:00:26;;;;;;;;;;;12.00;99.90;;;;;;5001777;28;19921;-83
2022/11/04 15:03:11;;;;;;;;;;;11.90;99.90;;;;;;5022088;28;20315;-83
2022/11/04 15:05:37;;;;;;;;;;;11.80;99.90;;;;;;5038689;28;20275;-84